sensor_id;sensor_type;location;lat;lon;timestamp;pressure;altitude;pressure_sealevel;temperature;humidity
68075;BME280;54864;52.002;5.468;2022-10-16T00:00:53;100814.75;;;14.42;70.15
68075;BME280;54864;52.002;5.468;2022-10-16T00:01:55;100818.63;;;14.36;70.32
68075;BME280;54864;52.002;5.468;2022-10-16T00:02:56;100814.19;;;14.37;70.45
68075;BME280;54864;52.002;5.468;2022-10-16T00:03:59;100814.19;;;14.37;70.81
68075;BME280;54864;52.002;5.468;2022-10-16T00:05:00;100817.38;;;14.27;71.08
68075;BME280;54864;52.002;5.468;2022-10-16T00:06:02;100809.88;;;14.20;71.05
68075;BME280;54864;52.002;5.468;2022-10-16T00:07:04;100815.66;;;14.26;70.80
68075;BME280;54864;52.002;5.468;2022-10-16T00:08:06;100812.44;;;14.21;71.41
68075;BME280;54864;52.002;5.468;2022-10-16T00:09:08;100814.03;;;14.24;71.23
68075;BME280;54864;52.002;5.468;2022-10-16T00:10:10;100822.75;;;14.26;71.07
68075;BME280;54864;52.002;5.468;2022-10-16T00:11:12;100823.69;;;14.25;71.57
68075;BME280;54864;52.002;5.468;2022-10-16T00:12:16;100820.72;;;14.31;71.34
68075;BME280;54864;52.002;5.468;2022-10-16T00:13:17;100824.78;;;14.37;71.55
68075;BME280;54864;52.002;5.468;2022-10-16T00:14:20;100818.91;;;14.32;71.40
68075;BME280;54864;52.002;5.468;2022-10-16T00:15:23;100824.22;;;14.32;71.22
68075;BME280;54864;52.002;5.468;2022-10-16T00:16:25;100830.38;;;14.32;71.25
68075;BME280;54864;52.002;5.468;2022-10-16T00:17:26;100819.75;;;14.32;71.24
68075;BME280;54864;52.002;5.468;2022-10-16T00:18:28;100824.38;;;14.28;71.03
68075;BME280;54864;52.002;5.468;2022-10-16T00:19:29;100823.19;;;14.34;70.57
68075;BME280;54864;52.002;5.468;2022-10-16T00:20:33;100821.19;;;14.38;70.92
68075;BME280;54864;52.002;5.468;2022-10-16T00:21:35;100820.72;;;14.31;71.20
68075;BME280;54864;52.002;5.468;2022-10-16T00:22:36;100814.47;;;14.32;71.42
68075;BME280;54864;52.002;5.468;2022-10-16T00:23:37;100815.97;;;14.36;71.33
68075;BME280;54864;52.002;5.468;2022-10-16T00:24:40;100820.53;;;14.34;71.63
68075;BME280;54864;52.002;5.468;2022-10-16T00:25:40;100821.28;;;14.36;71.51
68075;BME280;54864;52.002;5.468;2022-10-16T00:26:42;100817.50;;;14.40;71.74
68075;BME280;54864;52.002;5.468;2022-10-16T00:27:43;100816.28;;;14.46;71.12
68075;BME280;54864;52.002;5.468;2022-10-16T00:28:45;100806.97;;;14.39;71.35
68075;BME280;54864;52.002;5.468;2022-10-16T00:29:49;100816.69;;;14.24;71.71
68075;BME280;54864;52.002;5.468;2022-10-16T00:30:52;100821.09;;;14.39;71.54
68075;BME280;54864;52.002;5.468;2022-10-16T00:31:54;100828.34;;;14.51;71.42
68075;BME280;54864;52.002;5.468;2022-10-16T00:32:56;100817.91;;;14.48;71.19
68075;BME280;54864;52.002;5.468;2022-10-16T00:33:57;100821.69;;;14.44;71.26
68075;BME280;54864;52.002;5.468;2022-10-16T00:34:58;100811.56;;;14.51;71.21
68075;BME280;54864;52.002;5.468;2022-10-16T00:35:59;100818.47;;;14.53;71.25
68075;BME280;54864;52.002;5.468;2022-10-16T00:37:02;100823.22;;;14.63;70.91
68075;BME280;54864;52.002;5.468;2022-10-16T00:38:03;100816.69;;;14.54;70.87
68075;BME280;54864;52.002;5.468;2022-10-16T00:39:05;100826.63;;;14.50;71.59
68075;BME280;54864;52.002;5.468;2022-10-16T00:40:07;100822.84;;;14.54;71.18
68075;BME280;54864;52.002;5.468;2022-10-16T00:41:11;100816.69;;;14.54;71.30
68075;BME280;54864;52.002;5.468;2022-10-16T00:42:14;100818.38;;;14.69;71.01
68075;BME280;54864;52.002;5.468;2022-10-16T00:43:33;100821.03;;;14.69;70.89
68075;BME280;54864;52.002;5.468;2022-10-16T00:44:46;100812.88;;;14.72;71.35
68075;BME280;54864;52.002;5.468;2022-10-16T00:45:50;100814.00;;;14.82;71.10
68075;BME280;54864;52.002;5.468;2022-10-16T00:46:52;100810.50;;;14.82;70.90
68075;BME280;54864;52.002;5.468;2022-10-16T00:47:55;100816.25;;;14.88;70.83
68075;BME280;54864;52.002;5.468;2022-10-16T00:49:01;100823.09;;;14.78;70.97
68075;BME280;54864;52.002;5.468;2022-10-16T00:50:08;100819.41;;;14.81;71.05
68075;BME280;54864;52.002;5.468;2022-10-16T00:51:13;100816.94;;;14.78;71.00
68075;BME280;54864;52.002;5.468;2022-10-16T00:52:16;100814.66;;;14.86;71.07
68075;BME280;54864;52.002;5.468;2022-10-16T00:53:18;100821.47;;;14.90;70.81
68075;BME280;54864;52.002;5.468;2022-10-16T00:54:22;100825.47;;;14.97;71.01
68075;BME280;54864;52.002;5.468;2022-10-16T00:55:25;100818.53;;;14.95;70.83
68075;BME280;54864;52.002;5.468;2022-10-16T00:56:28;100825.94;;;15.04;70.61
68075;BME280;54864;52.002;5.468;2022-10-16T00:57:29;100827.44;;;15.08;70.42
68075;BME280;54864;52.002;5.468;2022-10-16T00:58:31;100820.72;;;15.02;70.56
68075;BME280;54864;52.002;5.468;2022-10-16T00:59:34;100813.53;;;15.04;70.64
68075;BME280;54864;52.002;5.468;2022-10-16T01:00:38;100830.00;;;15.09;70.43
68075;BME280;54864;52.002;5.468;2022-10-16T01:01:39;100823.47;;;15.01;70.55
68075;BME280;54864;52.002;5.468;2022-10-16T01:02:42;100826.78;;;14.90;71.09
68075;BME280;54864;52.002;5.468;2022-10-16T01:03:43;100828.50;;;15.05;70.93
68075;BME280;54864;52.002;5.468;2022-10-16T01:04:48;100827.44;;;15.08;70.85
68075;BME280;54864;52.002;5.468;2022-10-16T01:06:02;100827.25;;;15.11;70.58
68075;BME280;54864;52.002;5.468;2022-10-16T01:07:23;100829.91;;;15.11;70.68
68075;BME280;54864;52.002;5.468;2022-10-16T01:08:34;100830.84;;;15.10;70.53
68075;BME280;54864;52.002;5.468;2022-10-16T01:09:53;100829.91;;;15.11;70.46
68075;BME280;54864;52.002;5.468;2022-10-16T01:11:09;100824.03;;;15.06;71.07
68075;BME280;54864;52.002;5.468;2022-10-16T01:12:23;100830.00;;;14.95;71.31
68075;BME280;54864;52.002;5.468;2022-10-16T01:13:38;100829.94;;;14.97;71.56
68075;BME280;54864;52.002;5.468;2022-10-16T01:14:46;100829.16;;;15.09;71.23
68075;BME280;54864;52.002;5.468;2022-10-16T01:15:56;100823.28;;;15.04;71.28
68075;BME280;54864;52.002;5.468;2022-10-16T01:17:11;100824.78;;;15.08;70.90
68075;BME280;54864;52.002;5.468;2022-10-16T01:18:21;100820.16;;;14.97;71.24
68075;BME280;54864;52.002;5.468;2022-10-16T01:19:40;100832.47;;;15.12;71.08
68075;BME280;54864;52.002;5.468;2022-10-16T01:20:59;100828.47;;;15.19;70.74
68075;BME280;54864;52.002;5.468;2022-10-16T01:22:04;100830.38;;;15.17;71.20
68075;BME280;54864;52.002;5.468;2022-10-16T01:23:18;100823.34;;;15.16;70.83
68075;BME280;54864;52.002;5.468;2022-10-16T01:24:33;100826.84;;;15.17;70.55
68075;BME280;54864;52.002;5.468;2022-10-16T01:25:59;100821.91;;;15.25;70.36
68075;BME280;54864;52.002;5.468;2022-10-16T01:27:21;100817.09;;;15.17;70.51
68075;BME280;54864;52.002;5.468;2022-10-16T01:28:29;100834.63;;;15.20;70.68
68075;BME280;54864;52.002;5.468;2022-10-16T01:29:40;100825.41;;;15.26;70.74
68075;BME280;54864;52.002;5.468;2022-10-16T01:30:48;100823.84;;;15.36;70.57
68075;BME280;54864;52.002;5.468;2022-10-16T01:32:00;100822.25;;;15.33;70.09
68075;BME280;54864;52.002;5.468;2022-10-16T01:33:11;100829.19;;;15.36;70.07
68075;BME280;54864;52.002;5.468;2022-10-16T01:34:21;100835.88;;;15.41;70.32
68075;BME280;54864;52.002;5.468;2022-10-16T01:35:30;100822.50;;;15.16;70.96
68075;BME280;54864;52.002;5.468;2022-10-16T01:36:38;100824.19;;;15.17;70.48
68075;BME280;54864;52.002;5.468;2022-10-16T01:37:48;100824.41;;;15.14;70.92
68075;BME280;54864;52.002;5.468;2022-10-16T01:38:56;100828.00;;;15.13;70.94
68075;BME280;54864;52.002;5.468;2022-10-16T01:40:05;100823.72;;;15.25;71.00
68075;BME280;54864;52.002;5.468;2022-10-16T01:41:10;100821.69;;;15.28;70.45
68075;BME280;54864;52.002;5.468;2022-10-16T01:42:21;100828.63;;;15.31;70.61
68075;BME280;54864;52.002;5.468;2022-10-16T01:43:28;100824.81;;;15.35;70.74
68075;BME280;54864;52.002;5.468;2022-10-16T01:44:34;100824.00;;;15.20;70.89
68075;BME280;54864;52.002;5.468;2022-10-16T01:45:40;100814.22;;;15.20;71.02
68075;BME280;54864;52.002;5.468;2022-10-16T01:46:47;100820.09;;;15.26;70.83
68075;BME280;54864;52.002;5.468;2022-10-16T01:47:51;100822.34;;;15.32;70.79
68075;BME280;54864;52.002;5.468;2022-10-16T01:48:54;100821.09;;;15.37;70.84
68075;BME280;54864;52.002;5.468;2022-10-16T01:49:58;100817.59;;;15.37;70.84
68075;BME280;54864;52.002;5.468;2022-10-16T01:51:04;100818.53;;;15.36;70.64
68075;BME280;54864;52.002;5.468;2022-10-16T01:52:13;100815.63;;;15.26;70.64
68075;BME280;54864;52.002;5.468;2022-10-16T01:53:17;100815.75;;;15.25;70.53
68075;BME280;54864;52.002;5.468;2022-10-16T01:54:20;100814.28;;;15.33;70.65
68075;BME280;54864;52.002;5.468;2022-10-16T01:55:28;100814.38;;;15.32;70.33
68075;BME280;54864;52.002;5.468;2022-10-16T01:56:33;100816.78;;;15.22;70.83
68075;BME280;54864;52.002;5.468;2022-10-16T01:57:40;100816.00;;;15.34;70.57
68075;BME280;54864;52.002;5.468;2022-10-16T01:58:48;100812.47;;;15.34;70.35
68075;BME280;54864;52.002;5.468;2022-10-16T01:59:56;100807.13;;;15.48;70.19
68075;BME280;54864;52.002;5.468;2022-10-16T02:01:04;100807.47;;;15.29;70.83
68075;BME280;54864;52.002;5.468;2022-10-16T02:02:10;100803.06;;;15.15;70.77
68075;BME280;54864;52.002;5.468;2022-10-16T02:03:18;100800.94;;;15.20;70.58
68075;BME280;54864;52.002;5.468;2022-10-16T02:04:24;100800.78;;;15.09;70.99
68075;BME280;54864;52.002;5.468;2022-10-16T02:05:32;100797.50;;;14.91;71.66
68075;BME280;54864;52.002;5.468;2022-10-16T02:06:34;100800.50;;;15.14;71.38
68075;BME280;54864;52.002;5.468;2022-10-16T02:07:36;100809.88;;;15.19;70.70
68075;BME280;54864;52.002;5.468;2022-10-16T02:08:37;100811.91;;;15.02;71.56
68075;BME280;54864;52.002;5.468;2022-10-16T02:09:40;100811.78;;;15.17;71.26
68075;BME280;54864;52.002;5.468;2022-10-16T02:10:42;100822.31;;;15.19;70.96
68075;BME280;54864;52.002;5.468;2022-10-16T02:11:45;100823.91;;;15.21;71.40
68075;BME280;54864;52.002;5.468;2022-10-16T02:12:49;100824.56;;;15.25;70.89
68075;BME280;54864;52.002;5.468;2022-10-16T02:14:00;100829.53;;;15.44;70.79
68075;BME280;54864;52.002;5.468;2022-10-16T02:15:04;100829.06;;;15.37;70.56
68075;BME280;54864;52.002;5.468;2022-10-16T02:16:09;100827.91;;;15.41;70.49
68075;BME280;54864;52.002;5.468;2022-10-16T02:17:12;100832.28;;;15.42;70.63
68075;BME280;54864;52.002;5.468;2022-10-16T02:18:16;100834.09;;;15.42;70.26
68075;BME280;54864;52.002;5.468;2022-10-16T02:19:17;100832.06;;;15.18;70.69
68075;BME280;54864;52.002;5.468;2022-10-16T02:20:25;100825.75;;;15.07;71.26
68075;BME280;54864;52.002;5.468;2022-10-16T02:21:34;100832.56;;;15.11;71.02
68075;BME280;54864;52.002;5.468;2022-10-16T02:22:46;100839.03;;;15.07;71.42
68075;BME280;54864;52.002;5.468;2022-10-16T02:23:51;100838.63;;;15.13;71.42
68075;BME280;54864;52.002;5.468;2022-10-16T02:25:02;100834.47;;;15.09;71.29
68075;BME280;54864;52.002;5.468;2022-10-16T02:26:09;100842.13;;;15.13;71.34
68075;BME280;54864;52.002;5.468;2022-10-16T02:27:21;100844.41;;;15.19;71.44
68075;BME280;54864;52.002;5.468;2022-10-16T02:28:34;100830.63;;;15.27;71.11
68075;BME280;54864;52.002;5.468;2022-10-16T02:29:47;100845.19;;;14.93;71.94
68075;BME280;54864;52.002;5.468;2022-10-16T02:30:56;100837.78;;;15.12;71.56
68075;BME280;54864;52.002;5.468;2022-10-16T02:32:03;100832.34;;;15.28;71.14
68075;BME280;54864;52.002;5.468;2022-10-16T02:33:08;100832.91;;;15.19;71.31
68075;BME280;54864;52.002;5.468;2022-10-16T02:34:14;100833.22;;;15.14;71.63
68075;BME280;54864;52.002;5.468;2022-10-16T02:35:19;100827.41;;;15.22;71.69
68075;BME280;54864;52.002;5.468;2022-10-16T02:36:24;100827.44;;;15.08;71.56
68075;BME280;54864;52.002;5.468;2022-10-16T02:37:27;100830.31;;;15.05;71.88
68075;BME280;54864;52.002;5.468;2022-10-16T02:38:30;100835.97;;;15.13;71.86
68075;BME280;54864;52.002;5.468;2022-10-16T02:39:31;100830.72;;;15.26;71.53
68075;BME280;54864;52.002;5.468;2022-10-16T02:40:34;100824.00;;;15.20;71.82
68075;BME280;54864;52.002;5.468;2022-10-16T02:41:36;100832.13;;;15.31;71.09
68075;BME280;54864;52.002;5.468;2022-10-16T02:42:39;100838.00;;;15.36;70.70
68075;BME280;54864;52.002;5.468;2022-10-16T02:43:42;100832.47;;;15.39;70.76
68075;BME280;54864;52.002;5.468;2022-10-16T02:44:43;100844.13;;;15.51;70.55
68075;BME280;54864;52.002;5.468;2022-10-16T02:45:44;100837.75;;;15.53;70.32
68075;BME280;54864;52.002;5.468;2022-10-16T02:46:46;100834.22;;;15.53;69.97
68075;BME280;54864;52.002;5.468;2022-10-16T02:47:47;100836.03;;;15.52;69.98
68075;BME280;54864;52.002;5.468;2022-10-16T02:48:49;100843.66;;;15.44;70.75
68075;BME280;54864;52.002;5.468;2022-10-16T02:49:50;100840.16;;;15.44;70.57
68075;BME280;54864;52.002;5.468;2022-10-16T02:50:51;100840.44;;;15.39;70.60
68075;BME280;54864;52.002;5.468;2022-10-16T02:51:52;100839.81;;;15.36;70.30
68075;BME280;54864;52.002;5.468;2022-10-16T02:52:54;100836.78;;;15.28;71.20
68075;BME280;54864;52.002;5.468;2022-10-16T02:53:55;100839.25;;;15.31;70.77
68075;BME280;54864;52.002;5.468;2022-10-16T02:54:56;100837.53;;;15.30;70.97
68075;BME280;54864;52.002;5.468;2022-10-16T02:55:57;100837.78;;;15.12;71.24
68075;BME280;54864;52.002;5.468;2022-10-16T02:56:59;100844.59;;;15.16;71.03
68075;BME280;54864;52.002;5.468;2022-10-16T02:58:00;100848.56;;;15.23;71.05
68075;BME280;54864;52.002;5.468;2022-10-16T02:59:03;100852.22;;;15.35;70.69
68075;BME280;54864;52.002;5.468;2022-10-16T03:00:05;100845.41;;;15.31;70.67
68075;BME280;54864;52.002;5.468;2022-10-16T03:01:08;100846.16;;;15.33;70.40
68075;BME280;54864;52.002;5.468;2022-10-16T03:02:08;100831.97;;;15.20;70.77
68075;BME280;54864;52.002;5.468;2022-10-16T03:03:10;100835.22;;;15.11;71.22
68075;BME280;54864;52.002;5.468;2022-10-16T03:04:11;100825.72;;;15.21;71.18
68075;BME280;54864;52.002;5.468;2022-10-16T03:05:14;100837.84;;;15.25;70.94
68075;BME280;54864;52.002;5.468;2022-10-16T03:06:15;100836.22;;;15.22;71.20
68075;BME280;54864;52.002;5.468;2022-10-16T03:07:17;100835.38;;;15.22;71.09
68075;BME280;54864;52.002;5.468;2022-10-16T03:08:18;100844.91;;;15.12;71.22
68075;BME280;54864;52.002;5.468;2022-10-16T03:09:23;100834.09;;;14.86;72.21
68075;BME280;54864;52.002;5.468;2022-10-16T03:10:24;100829.94;;;14.97;72.12
68075;BME280;54864;52.002;5.468;2022-10-16T03:11:26;100828.88;;;14.99;71.85
68075;BME280;54864;52.002;5.468;2022-10-16T03:12:27;100832.66;;;15.09;71.87
68075;BME280;54864;52.002;5.468;2022-10-16T03:13:29;100823.94;;;15.07;71.86
68075;BME280;54864;52.002;5.468;2022-10-16T03:14:31;100836.53;;;15.18;71.25
68075;BME280;54864;52.002;5.468;2022-10-16T03:15:32;100825.16;;;15.16;71.29
68075;BME280;54864;52.002;5.468;2022-10-16T03:16:33;100835.31;;;14.95;71.68
68075;BME280;54864;52.002;5.468;2022-10-16T03:17:35;100834.94;;;14.87;72.13
68075;BME280;54864;52.002;5.468;2022-10-16T03:18:36;100839.03;;;15.07;71.86
68075;BME280;54864;52.002;5.468;2022-10-16T03:19:38;100835.91;;;15.00;71.83
68075;BME280;54864;52.002;5.468;2022-10-16T03:20:39;100849.66;;;15.07;71.71
68075;BME280;54864;52.002;5.468;2022-10-16T03:21:41;100847.19;;;15.04;71.84
68075;BME280;54864;52.002;5.468;2022-10-16T03:22:42;100848.97;;;15.03;71.73
68075;BME280;54864;52.002;5.468;2022-10-16T03:23:44;100849.75;;;15.05;71.94
68075;BME280;54864;52.002;5.468;2022-10-16T03:24:44;100843.09;;;15.12;71.63
68075;BME280;54864;52.002;5.468;2022-10-16T03:25:46;100844.13;;;15.10;71.49
68075;BME280;54864;52.002;5.468;2022-10-16T03:26:47;100837.31;;;15.06;71.53
68075;BME280;54864;52.002;5.468;2022-10-16T03:27:48;100846.34;;;15.03;71.97
68075;BME280;54864;52.002;5.468;2022-10-16T03:28:49;100846.53;;;15.00;71.96
68075;BME280;54864;52.002;5.468;2022-10-16T03:29:52;100851.09;;;14.98;72.37
68075;BME280;54864;52.002;5.468;2022-10-16T03:30:53;100841.66;;;14.93;72.27
68075;BME280;54864;52.002;5.468;2022-10-16T03:31:55;100844.06;;;14.97;72.55
68075;BME280;54864;52.002;5.468;2022-10-16T03:32:56;100843.47;;;15.06;71.85
68075;BME280;54864;52.002;5.468;2022-10-16T03:33:58;100849.53;;;15.08;71.71
68075;BME280;54864;52.002;5.468;2022-10-16T03:34:59;100851.72;;;15.16;71.43
68075;BME280;54864;52.002;5.468;2022-10-16T03:36:01;100849.16;;;15.14;71.54
68075;BME280;54864;52.002;5.468;2022-10-16T03:37:02;100850.72;;;15.31;71.05
68075;BME280;54864;52.002;5.468;2022-10-16T03:38:04;100844.78;;;15.13;71.50
68075;BME280;54864;52.002;5.468;2022-10-16T03:39:05;100865.56;;;15.07;71.66
68075;BME280;54864;52.002;5.468;2022-10-16T03:40:07;100851.63;;;14.89;72.16
68075;BME280;54864;52.002;5.468;2022-10-16T03:41:08;100865.56;;;14.93;72.52
68075;BME280;54864;52.002;5.468;2022-10-16T03:42:10;100866.44;;;15.07;72.26
68075;BME280;54864;52.002;5.468;2022-10-16T03:43:11;100862.13;;;15.19;71.73
68075;BME280;54864;52.002;5.468;2022-10-16T03:44:13;100858.34;;;15.23;71.48
68075;BME280;54864;52.002;5.468;2022-10-16T03:45:15;100869.19;;;15.06;71.82
68075;BME280;54864;52.002;5.468;2022-10-16T03:46:17;100864.03;;;15.17;71.83
68075;BME280;54864;52.002;5.468;2022-10-16T03:47:18;100866.13;;;15.12;71.44
68075;BME280;54864;52.002;5.468;2022-10-16T03:48:22;100865.56;;;15.07;72.08
68075;BME280;54864;52.002;5.468;2022-10-16T03:49:23;100865.78;;;15.04;72.11
68075;BME280;54864;52.002;5.468;2022-10-16T03:50:24;100865.09;;;15.14;71.62
68075;BME280;54864;52.002;5.468;2022-10-16T03:51:26;100861.50;;;15.01;71.91
68075;BME280;54864;52.002;5.468;2022-10-16T03:52:27;100859.22;;;15.09;71.87
68075;BME280;54864;52.002;5.468;2022-10-16T03:53:28;100865.56;;;15.21;71.49
68075;BME280;54864;52.002;5.468;2022-10-16T03:54:29;100868.91;;;14.96;72.08
68075;BME280;54864;52.002;5.468;2022-10-16T03:55:31;100859.72;;;15.02;71.81
68075;BME280;54864;52.002;5.468;2022-10-16T03:56:31;100859.88;;;15.13;71.64
68075;BME280;54864;52.002;5.468;2022-10-16T03:57:33;100852.69;;;15.01;71.77
68075;BME280;54864;52.002;5.468;2022-10-16T03:58:34;100852.50;;;15.04;71.43
68075;BME280;54864;52.002;5.468;2022-10-16T03:59:36;100859.59;;;14.89;72.03
68075;BME280;54864;52.002;5.468;2022-10-16T04:00:41;100860.25;;;14.93;71.98
68075;BME280;54864;52.002;5.468;2022-10-16T04:01:43;100868.63;;;15.01;71.77
68075;BME280;54864;52.002;5.468;2022-10-16T04:02:43;100864.91;;;15.17;71.09
68075;BME280;54864;52.002;5.468;2022-10-16T04:03:45;100871.91;;;15.18;71.08
68075;BME280;54864;52.002;5.468;2022-10-16T04:04:46;100871.19;;;15.02;71.26
68075;BME280;54864;52.002;5.468;2022-10-16T04:05:48;100872.97;;;15.02;71.32
68075;BME280;54864;52.002;5.468;2022-10-16T04:06:51;100881.41;;;15.08;71.63
68075;BME280;54864;52.002;5.468;2022-10-16T04:07:52;100877.88;;;14.94;71.79
68075;BME280;54864;52.002;5.468;2022-10-16T04:08:55;100873.91;;;14.86;71.96
68075;BME280;54864;52.002;5.468;2022-10-16T04:09:56;100877.78;;;14.95;71.95
68075;BME280;54864;52.002;5.468;2022-10-16T04:10:59;100878.69;;;14.96;71.70
68075;BME280;54864;52.002;5.468;2022-10-16T04:11:59;100879.34;;;14.99;71.68
68075;BME280;54864;52.002;5.468;2022-10-16T04:13:01;100882.91;;;14.84;72.09
68075;BME280;54864;52.002;5.468;2022-10-16T04:14:02;100889.09;;;14.99;72.21
68075;BME280;54864;52.002;5.468;2022-10-16T04:15:04;100895.25;;;14.99;71.79
68075;BME280;54864;52.002;5.468;2022-10-16T04:16:07;100892.03;;;15.08;71.50
68075;BME280;54864;52.002;5.468;2022-10-16T04:17:09;100896.69;;;15.05;71.44
68075;BME280;54864;52.002;5.468;2022-10-16T04:18:09;100895.94;;;15.03;71.49
68075;BME280;54864;52.002;5.468;2022-10-16T04:19:11;100900.66;;;15.12;71.36
68075;BME280;54864;52.002;5.468;2022-10-16T04:20:12;100891.75;;;14.99;71.62
68075;BME280;54864;52.002;5.468;2022-10-16T04:21:14;100902.47;;;14.97;71.92
68075;BME280;54864;52.002;5.468;2022-10-16T04:22:15;100897.34;;;15.08;71.70
68075;BME280;54864;52.002;5.468;2022-10-16T04:23:17;100895.91;;;15.17;71.27
68075;BME280;54864;52.002;5.468;2022-10-16T04:24:17;100895.72;;;15.06;71.45
68075;BME280;54864;52.002;5.468;2022-10-16T04:25:19;100898.19;;;14.95;71.72
68075;BME280;54864;52.002;5.468;2022-10-16T04:26:20;100890.59;;;14.88;72.03
68075;BME280;54864;52.002;5.468;2022-10-16T04:27:22;100901.88;;;14.92;71.99
68075;BME280;54864;52.002;5.468;2022-10-16T04:28:22;100898.66;;;14.87;72.68
68075;BME280;54864;52.002;5.468;2022-10-16T04:29:24;100900.16;;;14.91;71.99
68075;BME280;54864;52.002;5.468;2022-10-16T04:30:25;100906.72;;;14.85;71.86
68075;BME280;54864;52.002;5.468;2022-10-16T04:31:28;100897.03;;;14.84;71.78
68075;BME280;54864;52.002;5.468;2022-10-16T04:32:29;100907.88;;;14.96;72.24
68075;BME280;54864;52.002;5.468;2022-10-16T04:33:31;100910.69;;;14.93;72.17
68075;BME280;54864;52.002;5.468;2022-10-16T04:34:31;100912.41;;;14.94;72.08
68075;BME280;54864;52.002;5.468;2022-10-16T04:35:33;100918.41;;;14.97;72.14
68075;BME280;54864;52.002;5.468;2022-10-16T04:36:34;100923.34;;;15.03;71.88
68075;BME280;54864;52.002;5.468;2022-10-16T04:37:36;100913.28;;;15.08;71.62
68075;BME280;54864;52.002;5.468;2022-10-16T04:38:36;100924.09;;;15.05;71.37
68075;BME280;54864;52.002;5.468;2022-10-16T04:39:39;100918.09;;;14.87;71.74
68075;BME280;54864;52.002;5.468;2022-10-16T04:40:41;100910.03;;;14.75;72.61
68075;BME280;54864;52.002;5.468;2022-10-16T04:41:43;100916.38;;;14.72;72.39
68075;BME280;54864;52.002;5.468;2022-10-16T04:42:44;100914.00;;;14.82;72.59
68075;BME280;54864;52.002;5.468;2022-10-16T04:43:46;100915.63;;;14.84;72.17
68075;BME280;54864;52.002;5.468;2022-10-16T04:44:47;100918.56;;;14.80;72.29
68075;BME280;54864;52.002;5.468;2022-10-16T04:45:48;100913.53;;;14.61;72.90
68075;BME280;54864;52.002;5.468;2022-10-16T04:46:52;100917.31;;;14.71;72.72
68075;BME280;54864;52.002;5.468;2022-10-16T04:47:56;100918.47;;;14.81;72.11
68075;BME280;54864;52.002;5.468;2022-10-16T04:48:57;100916.47;;;14.85;72.15
68075;BME280;54864;52.002;5.468;2022-10-16T04:49:59;100915.34;;;14.89;71.84
68075;BME280;54864;52.002;5.468;2022-10-16T04:51:03;100924.44;;;14.85;71.91
68075;BME280;54864;52.002;5.468;2022-10-16T04:52:05;100921.41;;;14.91;71.85
68075;BME280;54864;52.002;5.468;2022-10-16T04:53:05;100917.03;;;14.90;71.46
68075;BME280;54864;52.002;5.468;2022-10-16T04:54:08;100933.63;;;14.79;72.33
68075;BME280;54864;52.002;5.468;2022-10-16T04:55:09;100926.63;;;14.78;71.99
68075;BME280;54864;52.002;5.468;2022-10-16T04:56:11;100928.81;;;14.86;71.58
68075;BME280;54864;52.002;5.468;2022-10-16T04:57:12;100928.81;;;14.86;71.57
68075;BME280;54864;52.002;5.468;2022-10-16T04:58:14;100931.44;;;14.72;72.11
68075;BME280;54864;52.002;5.468;2022-10-16T04:59:16;100936.94;;;14.69;72.16
68075;BME280;54864;52.002;5.468;2022-10-16T05:00:17;100944.88;;;14.54;72.71
68075;BME280;54864;52.002;5.468;2022-10-16T05:01:18;100945.38;;;14.61;72.58
68075;BME280;54864;52.002;5.468;2022-10-16T05:02:21;100942.34;;;14.67;72.33
68075;BME280;54864;52.002;5.468;2022-10-16T05:03:22;100943.78;;;14.73;72.11
68075;BME280;54864;52.002;5.468;2022-10-16T05:04:24;100939.41;;;14.72;71.93
68075;BME280;54864;52.002;5.468;2022-10-16T05:05:25;100945.28;;;14.77;71.79
68075;BME280;54864;52.002;5.468;2022-10-16T05:06:27;100942.91;;;14.72;71.93
68075;BME280;54864;52.002;5.468;2022-10-16T05:07:28;100947.28;;;14.73;71.91
68075;BME280;54864;52.002;5.468;2022-10-16T05:08:29;100951.34;;;14.65;71.94
68075;BME280;54864;52.002;5.468;2022-10-16T05:09:30;100950.41;;;14.66;72.27
68075;BME280;54864;52.002;5.468;2022-10-16T05:10:32;100956.66;;;14.65;71.97
68075;BME280;54864;52.002;5.468;2022-10-16T05:11:33;100947.00;;;14.78;71.60
68075;BME280;54864;52.002;5.468;2022-10-16T05:12:35;100947.84;;;14.78;71.36
68075;BME280;54864;52.002;5.468;2022-10-16T05:13:36;100943.88;;;14.71;71.43
68075;BME280;54864;52.002;5.468;2022-10-16T05:14:38;100954.84;;;14.65;71.76
68075;BME280;54864;52.002;5.468;2022-10-16T05:15:39;100955.34;;;14.72;71.93
68075;BME280;54864;52.002;5.468;2022-10-16T05:16:41;100949.44;;;14.67;71.60
68075;BME280;54864;52.002;5.468;2022-10-16T05:17:43;100963.09;;;14.61;71.61
68075;BME280;54864;52.002;5.468;2022-10-16T05:18:45;100961.84;;;14.52;72.34
68075;BME280;54864;52.002;5.468;2022-10-16T05:19:46;100963.06;;;14.46;72.46
68075;BME280;54864;52.002;5.468;2022-10-16T05:20:47;100973.66;;;14.46;72.63
68075;BME280;54864;52.002;5.468;2022-10-16T05:21:48;100973.69;;;14.61;72.04
68075;BME280;54864;52.002;5.468;2022-10-16T05:22:50;100968.56;;;14.57;71.57
68075;BME280;54864;52.002;5.468;2022-10-16T05:23:52;100971.63;;;14.66;71.77
68075;BME280;54864;52.002;5.468;2022-10-16T05:24:54;100973.69;;;14.61;71.88
68075;BME280;54864;52.002;5.468;2022-10-16T05:25:56;100977.22;;;14.61;71.88
68075;BME280;54864;52.002;5.468;2022-10-16T05:26:59;100975.59;;;14.58;72.36
68075;BME280;54864;52.002;5.468;2022-10-16T05:28:00;100976.56;;;14.42;72.63
68075;BME280;54864;52.002;5.468;2022-10-16T05:29:03;100973.31;;;14.37;73.50
68075;BME280;54864;52.002;5.468;2022-10-16T05:30:05;100975.78;;;14.40;73.75
68075;BME280;54864;52.002;5.468;2022-10-16T05:31:09;100976.63;;;14.56;72.93
68075;BME280;54864;52.002;5.468;2022-10-16T05:32:10;100985.81;;;14.35;73.48
68075;BME280;54864;52.002;5.468;2022-10-16T05:33:13;100981.09;;;14.40;73.64